Terminal Aerodrome Forecast
Issued by NWS Wakefield, VA

Home | Current Version | Previous Version | Text Only | Print | Product List | Glossary On
Versions: 1 2 3 4 5 6 7 8 9 10 11 12 13 14 15 16 17
500
FTUS41 KAKQ 131136
TAFSBY
TAF
KSBY 131136Z 1312/1412 30015G25KT P6SM VCSH BKN040 OVC070
     FM131400 31023G34KT P6SM OVC060
     FM132200 32018G27KT P6SM BKN060
     FM140000 33015G25KT P6SM BKN060
     FM140900 31012G18KT P6SM SCT040=

USA.gov is the U.S. government's official web portal to all federal, state and local government web resources and services.